createdAt,value
2023-02-18T00:00:40.216Z,96268.03
2023-02-18T00:03:07.944Z,96272.63
2023-02-18T00:05:35.653Z,96260.41
2023-02-18T00:08:04.898Z,96265.31
2023-02-18T00:10:32.611Z,96267.47
2023-02-18T00:13:01.515Z,96263.13
2023-02-18T00:15:29.317Z,96266.16
2023-02-18T00:17:57.065Z,96258.50
2023-02-18T00:20:30.401Z,96252.81
2023-02-18T00:22:58.129Z,96249.53
2023-02-18T00:25:27.337Z,96248.72
2023-02-18T00:27:55.083Z,96237.28
2023-02-18T00:30:22.831Z,96241.41
2023-02-18T00:32:50.665Z,96240.03
2023-02-18T00:35:18.579Z,96240.59
2023-02-18T00:37:46.295Z,96243.28
2023-02-18T00:40:14.494Z,96241.66
2023-02-18T00:42:45.528Z,96249.00
2023-02-18T00:45:13.242Z,96245.75
2023-02-18T00:47:41.030Z,96250.09
2023-02-18T00:50:09.893Z,96243.03
2023-02-18T00:52:37.647Z,96245.19
2023-02-18T00:55:08.796Z,96238.69
2023-02-18T00:57:36.564Z,96247.66
2023-02-18T01:00:09.537Z,96249.28
2023-02-18T01:02:37.286Z,96250.91
2023-02-18T01:05:05.305Z,96249.28
2023-02-18T01:07:35.352Z,96243.31
2023-02-18T01:10:03.174Z,96246.28
2023-02-18T01:12:30.910Z,96247.66
2023-02-18T01:14:58.618Z,96242.75
2023-02-18T01:17:27.736Z,96243.03
2023-02-18T01:19:56.793Z,96234.88
2023-02-18T01:22:27.368Z,96238.69
2023-02-18T01:24:55.111Z,96232.41
2023-02-18T01:27:22.841Z,96223.19
2023-02-18T01:29:50.579Z,96224.25
2023-02-18T01:32:18.422Z,96224.84
2023-02-18T01:34:47.680Z,96225.66
2023-02-18T01:37:18.897Z,96225.63
2023-02-18T01:39:46.730Z,96222.38
2023-02-18T01:42:20.486Z,96219.94
2023-02-18T01:44:49.558Z,96218.03
2023-02-18T01:47:18.880Z,96223.44
2023-02-18T01:49:53.127Z,96221.28
2023-02-18T01:52:27.941Z,96227.53
2023-02-18T01:54:58.258Z,96232.44
2023-02-18T01:57:30.895Z,96225.63
2023-02-18T02:00:07.663Z,96226.72
2023-02-18T02:02:38.620Z,96219.09
2023-02-18T02:05:08.905Z,96228.63
2023-02-18T02:07:36.789Z,96230.78
2023-02-18T02:10:05.657Z,96228.34
2023-02-18T02:12:48.754Z,96223.44
2023-02-18T02:15:29.731Z,96216.66
2023-02-18T02:18:13.323Z,96213.13
2023-02-18T02:21:25.584Z,96213.13
2023-02-18T02:24:28.457Z,96216.41
2023-02-18T02:27:17.388Z,96211.75
2023-02-18T02:30:28.152Z,96205.22
2023-02-18T02:33:40.119Z,96208.22
2023-02-18T02:36:15.156Z,96205.22
2023-02-18T02:38:55.186Z,96203.03
2023-02-18T02:41:34.985Z,96203.59
2023-02-18T02:44:13.108Z,96200.59
2023-02-18T02:46:46.009Z,96203.59
2023-02-18T02:49:25.753Z,96199.22
2023-02-18T02:52:01.712Z,96197.06
2023-02-18T02:54:32.195Z,96187.81
2023-02-18T02:57:10.246Z,96188.31
2023-02-18T02:59:44.494Z,96185.34
2023-02-18T03:02:33.474Z,96185.91
2023-02-18T03:05:15.732Z,96175.81
2023-02-18T03:08:09.576Z,96170.13
2023-02-18T03:10:53.313Z,96169.28
2023-02-18T03:13:32.288Z,96169.06
2023-02-18T03:16:12.948Z,96176.94
2023-02-18T03:18:44.833Z,96176.66
2023-02-18T03:21:16.184Z,96172.31
2023-02-18T03:23:55.321Z,96173.13
2023-02-18T03:26:27.242Z,96179.38
2023-02-18T03:28:59.237Z,96173.94
2023-02-18T03:31:30.178Z,96170.16
2023-02-18T03:34:02.660Z,96172.31
2023-02-18T03:36:35.109Z,96178.84
2023-02-18T03:39:06.346Z,96173.41
2023-02-18T03:41:34.828Z,96175.03
2023-02-18T03:44:05.726Z,96175.84
2023-02-18T03:46:40.075Z,96175.31
2023-02-18T03:49:08.211Z,96171.78
2023-02-18T03:51:36.417Z,96168.50
2023-02-18T03:54:05.748Z,96169.88
2023-02-18T03:56:35.559Z,96179.38
2023-02-18T03:59:03.682Z,96175.59
2023-02-18T04:01:31.971Z,96165.53
2023-02-18T04:04:03.031Z,96175.59
2023-02-18T04:06:30.845Z,96177.22
2023-02-18T04:08:58.825Z,96171.50
2023-02-18T04:11:27.982Z,96167.72
2023-02-18T04:13:55.711Z,96171.81
2023-02-18T04:16:23.536Z,96170.19
2023-02-18T04:18:51.235Z,96177.50
2023-02-18T04:21:18.985Z,96172.34
2023-02-18T04:23:46.773Z,96170.44
2023-02-18T04:26:17.463Z,96160.94
2023-02-18T04:28:46.559Z,96162.84
2023-02-18T04:31:15.316Z,96167.47
2023-02-18T04:33:43.217Z,96145.16
2023-02-18T04:36:11.286Z,96164.19
2023-02-18T04:38:39.109Z,96170.19
2023-02-18T04:41:06.827Z,96170.19
2023-02-18T04:43:36.538Z,96175.09
2023-02-18T04:46:07.087Z,96174.28
2023-02-18T04:48:35.063Z,96164.78
2023-02-18T04:51:03.139Z,96173.72
2023-02-18T04:53:30.837Z,96169.66
2023-02-18T04:55:59.377Z,96173.19
2023-02-18T04:58:30.078Z,96175.38
2023-02-18T05:01:00.783Z,96184.34
2023-02-18T05:03:32.013Z,96187.59
2023-02-18T05:06:00.185Z,96185.41
2023-02-18T05:08:27.917Z,96182.97
2023-02-18T05:10:56.182Z,96184.59
2023-02-18T05:13:29.025Z,96184.88
2023-02-18T05:15:56.713Z,96167.75
2023-02-18T05:18:24.525Z,96164.75
2023-02-18T05:20:53.627Z,96152.25
2023-02-18T05:23:21.446Z,96159.34
2023-02-18T05:25:49.276Z,96172.91
2023-02-18T05:28:19.530Z,96168.03
2023-02-18T05:30:47.280Z,96153.34
2023-02-18T05:33:15.196Z,96151.44
2023-02-18T05:35:42.935Z,96152.25
2023-02-18T05:38:12.050Z,96164.50
2023-02-18T05:40:40.147Z,96164.47
2023-02-18T05:43:07.964Z,96145.16
2023-02-18T05:45:35.850Z,96149.50
2023-02-18T05:48:03.877Z,96152.22
2023-02-18T05:50:31.569Z,96155.22
2023-02-18T05:52:59.354Z,96148.69
2023-02-18T05:55:28.495Z,96152.22
2023-02-18T05:57:56.321Z,96149.25
2023-02-18T06:00:25.503Z,96146.53
2023-02-18T06:02:53.298Z,96154.13
2023-02-18T06:05:21.051Z,96150.34
2023-02-18T06:07:51.714Z,96147.63
2023-02-18T06:10:19.763Z,96151.69
2023-02-18T06:12:48.838Z,96157.41
2023-02-18T06:15:16.641Z,96148.16
2023-02-18T06:17:44.383Z,96154.41
2023-02-18T06:20:13.238Z,96171.81
2023-02-18T06:22:40.942Z,96171.00
2023-02-18T06:25:08.985Z,96166.38
2023-02-18T06:27:36.701Z,96172.06
2023-02-18T06:30:07.128Z,96163.38
2023-02-18T06:32:34.930Z,96178.34
2023-02-18T06:35:02.803Z,96170.19
2023-02-18T06:37:30.544Z,96177.50
2023-02-18T06:39:58.493Z,96179.97
2023-02-18T06:42:26.306Z,96158.75
2023-02-18T06:44:54.082Z,96168.81
2023-02-18T06:47:23.143Z,96169.91
2023-02-18T06:49:51.033Z,96166.09
2023-02-18T06:52:18.738Z,96164.19
2023-02-18T06:54:46.832Z,96162.53
2023-02-18T06:57:15.866Z,96156.53
2023-02-18T06:59:43.784Z,96156.28
2023-02-18T07:02:12.344Z,96161.72
2023-02-18T07:04:41.527Z,96157.09
2023-02-18T07:07:09.326Z,96161.16
2023-02-18T07:09:37.085Z,96145.13
2023-02-18T07:12:05.374Z,96154.59
2023-02-18T07:14:35.649Z,96154.59
2023-02-18T07:17:03.401Z,96155.69
2023-02-18T07:19:31.135Z,96143.72
2023-02-18T07:22:01.466Z,96156.22
2023-02-18T07:24:29.216Z,96156.50
2023-02-18T07:26:56.980Z,96162.78
2023-02-18T07:29:24.801Z,96155.69
2023-02-18T07:31:55.311Z,96158.69
2023-02-18T07:34:23.180Z,96160.31
2023-02-18T07:36:50.957Z,96166.28
2023-02-18T07:39:20.831Z,96170.69
2023-02-18T07:41:48.762Z,96168.50
2023-02-18T07:44:16.539Z,96157.09
2023-02-18T07:46:45.599Z,96176.38
2023-02-18T07:49:14.988Z,96164.94
2023-02-18T07:51:42.723Z,96159.75
2023-02-18T07:54:10.460Z,96165.75
2023-02-18T07:56:39.905Z,96142.63
2023-02-18T07:59:09.904Z,96156.50
2023-02-18T08:01:37.657Z,96159.19
2023-02-18T08:04:05.884Z,96150.50
2023-02-18T08:06:36.560Z,96160.28
2023-02-18T08:09:04.574Z,96145.56
2023-02-18T08:11:32.710Z,96141.53
2023-02-18T08:14:04.166Z,96135.22
2023-02-18T08:16:32.089Z,96133.03
2023-02-18T08:18:59.875Z,96122.97
2023-02-18T08:21:27.816Z,96129.44
2023-02-18T08:23:56.085Z,96122.56
2023-02-18T08:26:23.886Z,96128.78
2023-02-18T08:28:54.139Z,96123.81
2023-02-18T08:31:25.177Z,96119.72
2023-02-18T08:33:53.687Z,96104.47
2023-02-18T08:36:21.650Z,96095.19
2023-02-18T08:38:49.644Z,96105.53
2023-02-18T08:41:20.255Z,96097.00
2023-02-18T08:43:48.748Z,96099.25
2023-02-18T08:46:24.981Z,96093.28
2023-02-18T08:48:58.461Z,96098.66
2023-02-18T08:51:28.400Z,96084.50
2023-02-18T08:53:59.413Z,96076.88
2023-02-18T08:56:27.762Z,96098.50
2023-02-18T08:58:59.591Z,96097.31
2023-02-18T09:01:27.421Z,96088.03
2023-02-18T09:03:55.269Z,96095.59
2023-02-18T09:06:24.576Z,96091.50
2023-02-18T09:08:52.381Z,96096.19
2023-02-18T09:11:20.920Z,96104.53
2023-02-18T09:13:48.856Z,96103.13
2023-02-18T09:16:19.072Z,96086.75
2023-02-18T09:18:47.586Z,96072.31
2023-02-18T09:21:18.978Z,96084.75
2023-02-18T09:23:51.546Z,96111.88
2023-02-18T09:26:23.096Z,96090.97
2023-02-18T09:28:51.840Z,96079.19
2023-02-18T09:31:21.650Z,96092.94
2023-02-18T09:33:52.349Z,96087.25
2023-02-18T09:36:20.496Z,96101.91
2023-02-18T09:38:50.355Z,96087.47
2023-02-18T09:41:31.519Z,96084.47
2023-02-18T09:44:02.376Z,96082.28
2023-02-18T09:46:33.637Z,96062.31
2023-02-18T09:49:06.113Z,96051.06
2023-02-18T09:51:34.013Z,96038.31
2023-02-18T09:54:03.173Z,96046.25
2023-02-18T09:56:34.780Z,96039.69
2023-02-18T09:59:08.283Z,96026.00
2023-02-18T10:01:38.853Z,96024.09
2023-02-18T10:04:14.471Z,96018.47
2023-02-18T10:06:42.041Z,96020.72
2023-02-18T10:09:20.580Z,96024.88
2023-02-18T10:11:52.533Z,96032.09
2023-02-18T10:14:20.752Z,96016.13
2023-02-18T10:16:51.987Z,96007.09
2023-02-18T10:19:26.984Z,95993.16
2023-02-18T10:21:56.210Z,95997.06
2023-02-18T10:24:32.075Z,95987.72
2023-02-18T10:27:00.948Z,95981.69
2023-02-18T10:29:30.255Z,95983.94
2023-02-18T10:32:00.695Z,95971.75
2023-02-18T10:34:42.188Z,95978.97
2023-02-18T10:37:34.623Z,95968.81
2023-02-18T10:40:14.795Z,95977.22
2023-02-18T10:42:52.788Z,95968.13
2023-02-18T10:45:31.433Z,95965.66
2023-02-18T10:48:11.028Z,95958.06
2023-02-18T10:50:41.377Z,95954.53
2023-02-18T10:53:15.335Z,95962.84
2023-02-18T10:55:46.888Z,95953.53
2023-02-18T10:58:28.179Z,95945.31
2023-02-18T11:00:56.166Z,95932.13
2023-02-18T11:03:25.914Z,95936.91
2023-02-18T11:05:57.165Z,95920.88
2023-02-18T11:08:28.016Z,95921.03
2023-02-18T11:10:57.670Z,95905.16
2023-02-18T11:13:28.230Z,95898.47
2023-02-18T11:15:59.474Z,95895.00
2023-02-18T11:18:37.164Z,95885.00
2023-02-18T11:21:07.408Z,95875.00
2023-02-18T11:23:47.469Z,95887.97
2023-02-18T11:26:18.536Z,95877.75
2023-02-18T11:28:48.158Z,95884.97
2023-02-18T11:31:24.579Z,95846.72
2023-02-18T11:33:55.748Z,95872.19
2023-02-18T11:36:26.444Z,95869.31
2023-02-18T11:38:57.953Z,95869.25
2023-02-18T11:41:35.334Z,95869.50
2023-02-18T11:44:05.317Z,95856.75
2023-02-18T11:46:33.191Z,95879.44
2023-02-18T11:49:22.206Z,95869.88
2023-02-18T11:51:51.304Z,95867.75
2023-02-18T11:54:26.649Z,95881.03
2023-02-18T11:57:03.032Z,95869.94
2023-02-18T11:59:34.255Z,95867.56
2023-02-18T12:02:23.923Z,95849.19
2023-02-18T12:04:55.177Z,95842.59
2023-02-18T12:07:28.674Z,95853.00
2023-02-18T12:09:59.889Z,95841.69
2023-02-18T12:12:32.151Z,95842.41
2023-02-18T12:15:01.271Z,95826.50
2023-02-18T12:17:53.505Z,95816.06
2023-02-18T12:20:38.200Z,95828.03
2023-02-18T12:23:14.533Z,95832.88
2023-02-18T12:25:50.406Z,95819.09
2023-02-18T12:28:32.754Z,95821.69
2023-02-18T12:31:17.021Z,95802.75
2023-02-18T12:33:57.005Z,95802.69
2023-02-18T12:36:39.414Z,95799.06
2023-02-18T12:39:15.795Z,95788.47
2023-02-18T12:41:56.795Z,95783.75
2023-02-18T12:44:35.967Z,95779.81
2023-02-18T12:47:18.640Z,95786.94
2023-02-18T12:50:15.318Z,95805.44
2023-02-18T12:52:52.008Z,95784.72
2023-02-18T12:55:33.964Z,95797.56
2023-02-18T12:58:10.154Z,95807.59
2023-02-18T13:01:02.831Z,95797.53
2023-02-18T13:04:00.996Z,95784.88
2023-02-18T13:06:47.513Z,95781.16
2023-02-18T13:09:26.257Z,95800.75
2023-02-18T13:12:04.459Z,95794.88
2023-02-18T13:14:35.965Z,95781.59
2023-02-18T13:17:09.986Z,95796.94
2023-02-18T13:19:50.534Z,95781.25
2023-02-18T13:22:21.540Z,95780.00
2023-02-18T13:24:52.151Z,95790.53
2023-02-18T13:27:26.253Z,95765.31
2023-02-18T13:30:17.591Z,95776.34
2023-02-18T13:32:58.874Z,95776.22
2023-02-18T13:35:33.969Z,95764.81
2023-02-18T13:38:20.380Z,95778.41
2023-02-18T13:40:50.995Z,95785.91
2023-02-18T13:43:21.233Z,95780.69
2023-02-18T13:46:05.601Z,95788.78
2023-02-18T13:48:40.433Z,95793.59
2023-02-18T13:51:08.495Z,95781.53
2023-02-18T13:53:42.755Z,95785.94
2023-02-18T13:56:21.229Z,95786.84
2023-02-18T13:58:52.831Z,95778.16
2023-02-18T14:01:34.623Z,95780.72
2023-02-18T14:04:04.082Z,95788.88
2023-02-18T14:06:34.424Z,95791.16
2023-02-18T14:09:37.266Z,95779.84
2023-02-18T14:12:26.360Z,95783.41
2023-02-18T14:14:54.179Z,95792.13
2023-02-18T14:17:34.322Z,95784.13
2023-02-18T14:20:38.802Z,95798.06
2023-02-18T14:23:40.614Z,95785.13
2023-02-18T14:26:11.048Z,95785.25
2023-02-18T14:28:45.885Z,95791.91
2023-02-18T14:31:30.934Z,95793.97
2023-02-18T14:34:47.816Z,95750.66
2023-02-18T14:37:43.520Z,95796.69
2023-02-18T14:40:26.430Z,95793.66
2023-02-18T14:43:05.981Z,95786.56
2023-02-18T14:45:54.388Z,95804.28
2023-02-18T14:48:41.403Z,95802.47
2023-02-18T14:51:10.327Z,95802.66
2023-02-18T14:53:43.421Z,95819.75
2023-02-18T14:56:15.985Z,95789.59
2023-02-18T14:58:48.393Z,95784.03
2023-02-18T15:01:22.911Z,95789.06
2023-02-18T15:03:52.051Z,95781.38
2023-02-18T15:06:33.207Z,95785.53
2023-02-18T15:09:01.266Z,95784.72
2023-02-18T15:11:38.097Z,95786.63
2023-02-18T15:14:11.825Z,95775.13
2023-02-18T15:16:40.402Z,95784.13
2023-02-18T15:19:14.694Z,95792.09
2023-02-18T15:21:44.853Z,95775.84
2023-02-18T15:24:25.793Z,95785.63
2023-02-18T15:27:00.262Z,95780.88
2023-02-18T15:29:29.597Z,95788.53
2023-02-18T15:31:59.112Z,95787.44
2023-02-18T15:34:34.181Z,95794.09
2023-02-18T15:37:04.044Z,95802.91
2023-02-18T15:39:35.395Z,95793.69
2023-02-18T15:42:09.577Z,95808.50
2023-02-18T15:44:38.515Z,95794.66
2023-02-18T15:47:09.100Z,95815.75
2023-02-18T15:49:39.494Z,95791.03
2023-02-18T15:52:09.781Z,95806.06
2023-02-18T15:54:42.068Z,95790.13
2023-02-18T15:57:17.327Z,95800.56
2023-02-18T15:59:47.719Z,95809.63
2023-02-18T16:02:21.787Z,95797.91
2023-02-18T16:04:53.325Z,95798.03
2023-02-18T16:07:24.739Z,95790.72
2023-02-18T16:09:58.657Z,95792.41
2023-02-18T16:12:32.659Z,95791.31
2023-02-18T16:15:04.486Z,95807.72
2023-02-18T16:17:33.062Z,95805.91
2023-02-18T16:20:05.822Z,95814.97
2023-02-18T16:22:36.382Z,95807.59
2023-02-18T16:25:15.039Z,95807.38
2023-02-18T16:27:51.361Z,95817.75
2023-02-18T16:30:21.723Z,95823.88
2023-02-18T16:32:49.536Z,95818.44
2023-02-18T16:35:18.002Z,95806.19
2023-02-18T16:37:47.944Z,95811.69
2023-02-18T16:40:25.391Z,95801.38
2023-02-18T16:42:55.151Z,95810.94
2023-02-18T16:45:30.074Z,95809.84
2023-02-18T16:47:58.852Z,95798.75
2023-02-18T16:50:29.569Z,95804.50
2023-02-18T16:52:57.774Z,95821.13
2023-02-18T16:55:27.192Z,95822.50
2023-02-18T16:57:56.719Z,95822.50
2023-02-18T17:00:25.306Z,95814.06
2023-02-18T17:02:55.536Z,95820.59
2023-02-18T17:05:26.935Z,95812.94
2023-02-18T17:07:57.860Z,95821.19
2023-02-18T17:10:25.650Z,95829.94
2023-02-18T17:12:53.361Z,95814.44
2023-02-18T17:15:34.493Z,95827.28
2023-02-18T17:18:04.571Z,95810.44
2023-02-18T17:20:34.263Z,95838.53
2023-02-18T17:23:02.038Z,95834.69
2023-02-18T17:25:34.640Z,95835.00
2023-02-18T17:28:02.703Z,95836.66
2023-02-18T17:30:33.131Z,95847.31
2023-02-18T17:33:03.198Z,95846.78
2023-02-18T17:35:32.136Z,95837.84
2023-02-18T17:38:00.208Z,95851.47
2023-02-18T17:40:29.505Z,95852.59
2023-02-18T17:42:57.571Z,95857.19
2023-02-18T17:45:29.865Z,95846.88
2023-02-18T17:47:59.885Z,95861.59
2023-02-18T17:50:29.399Z,95859.97
2023-02-18T17:52:57.169Z,95862.97
2023-02-18T17:55:26.749Z,95863.78
2023-02-18T17:57:57.295Z,95860.50
2023-02-18T18:00:30.450Z,95863.94
2023-02-18T18:02:59.875Z,95871.31
2023-02-18T18:05:30.002Z,95870.28
2023-02-18T18:07:57.719Z,95871.38
2023-02-18T18:10:33.452Z,95877.91
2023-02-18T18:13:02.718Z,95878.22
2023-02-18T18:15:35.378Z,95876.34
2023-02-18T18:18:04.735Z,95883.44
2023-02-18T18:20:34.631Z,95873.16
2023-02-18T18:23:05.185Z,95873.69
2023-02-18T18:25:38.734Z,95884.59
2023-02-18T18:28:08.165Z,95873.41
2023-02-18T18:30:38.871Z,95880.22
2023-02-18T18:33:19.324Z,95873.16
2023-02-18T18:35:49.952Z,95876.91
2023-02-18T18:38:18.384Z,95873.97
2023-02-18T18:40:47.222Z,95862.00
2023-02-18T18:43:18.660Z,95856.47
2023-02-18T18:45:46.485Z,95852.94
2023-02-18T18:48:16.040Z,95851.50
2023-02-18T18:50:44.396Z,95852.31
2023-02-18T18:53:18.863Z,95850.97
2023-02-18T18:55:46.960Z,95851.03
2023-02-18T18:58:17.090Z,95850.22
2023-02-18T19:00:45.952Z,95848.25
2023-02-18T19:03:18.116Z,95850.16
2023-02-18T19:05:47.290Z,95867.06
2023-02-18T19:08:16.763Z,95846.16
2023-02-18T19:10:46.235Z,95841.75
2023-02-18T19:13:15.775Z,95853.56
2023-02-18T19:15:43.939Z,95859.28
2023-02-18T19:18:15.886Z,95847.88
2023-02-18T19:20:44.675Z,95858.47
2023-02-18T19:23:12.668Z,95857.66
2023-02-18T19:25:41.669Z,95866.84
2023-02-18T19:28:13.673Z,95848.59
2023-02-18T19:30:42.315Z,95862.00
2023-02-18T19:33:13.854Z,95851.88
2023-02-18T19:35:44.327Z,95857.66
2023-02-18T19:38:13.895Z,95867.25
2023-02-18T19:40:42.622Z,95872.69
2023-02-18T19:43:12.051Z,95876.22
2023-02-18T19:45:43.165Z,95878.13
2023-02-18T19:48:11.738Z,95878.41
2023-02-18T19:50:42.687Z,95889.38
2023-02-18T19:53:11.619Z,95883.13
2023-02-18T19:55:39.500Z,95890.78
2023-02-18T19:58:07.289Z,95898.94
2023-02-18T20:00:35.390Z,95908.22
2023-02-18T20:03:03.166Z,95905.44
2023-02-18T20:05:30.940Z,95902.44
2023-02-18T20:08:00.388Z,95905.16
2023-02-18T20:10:29.238Z,95909.50
2023-02-18T20:12:56.946Z,95910.09
2023-02-18T20:15:24.713Z,95921.25
2023-02-18T20:17:52.483Z,95915.00
2023-02-18T20:20:21.591Z,95905.19
2023-02-18T20:22:49.410Z,95911.75
2023-02-18T20:25:18.746Z,95914.75
2023-02-18T20:27:59.836Z,95916.38
2023-02-18T20:30:28.846Z,95914.56
2023-02-18T20:32:56.606Z,95920.81
2023-02-18T20:35:24.531Z,95913.75
2023-02-18T20:37:54.039Z,95914.28
2023-02-18T20:40:23.240Z,95916.47
2023-02-18T20:42:51.002Z,95918.38
2023-02-18T20:45:19.501Z,95902.41
2023-02-18T20:47:47.241Z,95909.19
2023-02-18T20:50:15.903Z,95915.19
2023-02-18T20:52:43.723Z,95905.72
2023-02-18T20:55:11.507Z,95914.16
2023-02-18T20:57:40.600Z,95919.34
2023-02-18T21:00:09.480Z,95912.28
2023-02-18T21:02:37.225Z,95906.84
2023-02-18T21:05:05.308Z,95921.53
2023-02-18T21:07:33.451Z,95910.66
2023-02-18T21:10:01.266Z,95909.31
2023-02-18T21:12:28.964Z,95907.94
2023-02-18T21:14:58.079Z,95903.84
2023-02-18T21:17:26.083Z,95902.47
2023-02-18T21:19:53.799Z,95912.53
2023-02-18T21:22:21.589Z,95903.03
2023-02-18T21:24:51.208Z,95914.44
2023-02-18T21:27:18.955Z,95901.91
2023-02-18T21:29:46.737Z,95909.56
2023-02-18T21:32:16.005Z,95893.81
2023-02-18T21:34:43.814Z,95910.13
2023-02-18T21:37:11.601Z,95903.38
2023-02-18T21:39:39.503Z,95897.69
2023-02-18T21:42:07.234Z,95915.38
2023-02-18T21:44:42.212Z,95915.69
2023-02-18T21:47:10.306Z,95917.56
2023-02-18T21:49:39.544Z,95911.59
2023-02-18T21:52:09.422Z,95906.16
2023-02-18T21:54:39.300Z,95907.25
2023-02-18T21:57:08.727Z,95915.41
2023-02-18T21:59:37.455Z,95909.38
2023-02-18T22:02:07.173Z,95908.00
2023-02-18T22:04:37.139Z,95911.84
2023-02-18T22:07:06.726Z,95899.88
2023-02-18T22:09:34.432Z,95899.34
2023-02-18T22:12:02.256Z,95893.63
2023-02-18T22:14:30.180Z,95883.03
2023-02-18T22:16:58.010Z,95915.38
2023-02-18T22:19:25.984Z,95910.75
2023-02-18T22:21:53.736Z,95899.88
2023-02-18T22:24:22.861Z,95904.78
2023-02-18T22:26:51.034Z,95904.78
2023-02-18T22:29:20.775Z,95905.88
2023-02-18T22:31:49.509Z,95909.97
2023-02-18T22:34:18.013Z,95907.53
2023-02-18T22:36:48.944Z,95912.16
2023-02-18T22:39:17.193Z,95906.44
2023-02-18T22:41:49.129Z,95908.88
2023-02-18T22:44:20.305Z,95908.59
2023-02-18T22:46:48.625Z,95885.72
2023-02-18T22:49:16.876Z,95880.31
2023-02-18T22:51:45.428Z,95900.44
2023-02-18T22:54:14.818Z,95890.91
2023-02-18T23:00:58.135Z,95892.34
2023-02-18T23:03:27.402Z,95887.13
2023-02-18T23:05:55.279Z,95888.75
2023-02-18T23:08:23.324Z,95896.44
2023-02-18T23:11:01.416Z,95889.03
2023-02-18T23:13:31.554Z,95891.75
2023-02-18T23:16:02.967Z,95898.00
2023-02-18T23:18:32.401Z,95898.00
2023-02-18T23:21:21.611Z,95871.38
2023-02-18T23:23:52.679Z,95878.50
2023-02-18T23:26:21.255Z,95886.91
2023-02-18T23:28:50.617Z,95868.72
2023-02-18T23:31:22.262Z,95875.22
2023-02-18T23:33:53.524Z,95884.75
2023-02-18T23:36:23.428Z,95878.25
2023-02-18T23:38:52.335Z,95882.88
2023-02-18T23:41:23.020Z,95886.13
2023-02-18T23:43:51.104Z,95882.34
2023-02-18T23:46:21.872Z,95877.44
2023-02-18T23:48:50.228Z,95877.69
2023-02-18T23:51:23.948Z,95882.34
2023-02-18T23:53:51.922Z,95866.31
2023-02-18T23:56:22.832Z,95867.94
2023-02-18T23:58:53.148Z,95863.59
